sensor_id;sensor_type;location;lat;lon;timestamp;P1;durP1;ratioP1;P2;durP2;ratioP2
43070;SDS011;36278;47.952;21.714;2022-10-17T00:00:40;52.70;;;36.67;;
43070;SDS011;36278;47.952;21.714;2022-10-17T00:03:06;48.90;;;36.37;;
43070;SDS011;36278;47.952;21.714;2022-10-17T00:05:32;50.47;;;37.00;;
43070;SDS011;36278;47.952;21.714;2022-10-17T00:07:57;50.87;;;37.07;;
43070;SDS011;36278;47.952;21.714;2022-10-17T00:10:23;48.60;;;36.47;;
43070;SDS011;36278;47.952;21.714;2022-10-17T00:12:49;46.67;;;36.50;;
43070;SDS011;36278;47.952;21.714;2022-10-17T00:15:16;49.10;;;36.23;;
43070;SDS011;36278;47.952;21.714;2022-10-17T00:17:43;45.57;;;36.33;;
43070;SDS011;36278;47.952;21.714;2022-10-17T00:20:09;50.70;;;37.87;;
43070;SDS011;36278;47.952;21.714;2022-10-17T00:22:35;49.73;;;36.07;;
43070;SDS011;36278;47.952;21.714;2022-10-17T00:25:01;49.57;;;36.70;;
43070;SDS011;36278;47.952;21.714;2022-10-17T00:27:26;50.40;;;36.93;;
43070;SDS011;36278;47.952;21.714;2022-10-17T00:29:51;52.40;;;38.87;;
43070;SDS011;36278;47.952;21.714;2022-10-17T00:32:18;51.27;;;37.10;;
43070;SDS011;36278;47.952;21.714;2022-10-17T00:34:43;49.30;;;38.70;;
43070;SDS011;36278;47.952;21.714;2022-10-17T00:37:09;47.10;;;37.67;;
43070;SDS011;36278;47.952;21.714;2022-10-17T00:39:35;51.37;;;38.10;;
43070;SDS011;36278;47.952;21.714;2022-10-17T00:42:01;46.93;;;37.03;;
43070;SDS011;36278;47.952;21.714;2022-10-17T00:46:58;53.60;;;39.10;;
43070;SDS011;36278;47.952;21.714;2022-10-17T00:49:27;47.53;;;36.63;;
43070;SDS011;36278;47.952;21.714;2022-10-17T00:51:57;51.87;;;39.00;;
43070;SDS011;36278;47.952;21.714;2022-10-17T00:54:26;49.03;;;36.73;;
43070;SDS011;36278;47.952;21.714;2022-10-17T00:56:55;47.83;;;35.43;;
43070;SDS011;36278;47.952;21.714;2022-10-17T00:59:21;50.13;;;38.03;;
43070;SDS011;36278;47.952;21.714;2022-10-17T01:02:08;50.87;;;37.67;;
43070;SDS011;36278;47.952;21.714;2022-10-17T01:04:36;47.80;;;36.00;;
43070;SDS011;36278;47.952;21.714;2022-10-17T01:07:02;50.23;;;36.57;;
43070;SDS011;36278;47.952;21.714;2022-10-17T01:09:28;46.87;;;36.50;;
43070;SDS011;36278;47.952;21.714;2022-10-17T01:14:53;48.27;;;38.03;;
43070;SDS011;36278;47.952;21.714;2022-10-17T01:25:28;51.43;;;37.60;;
43070;SDS011;36278;47.952;21.714;2022-10-17T01:44:04;48.90;;;37.10;;
43070;SDS011;36278;47.952;21.714;2022-10-17T01:46:37;46.93;;;33.83;;
43070;SDS011;36278;47.952;21.714;2022-10-17T01:49:07;45.03;;;34.13;;
43070;SDS011;36278;47.952;21.714;2022-10-17T01:55:05;48.00;;;33.90;;
43070;SDS011;36278;47.952;21.714;2022-10-17T01:57:03;42.13;;;33.80;;
43070;SDS011;36278;47.952;21.714;2022-10-17T01:59:37;51.10;;;34.50;;
43070;SDS011;36278;47.952;21.714;2022-10-17T02:02:06;46.07;;;34.30;;
43070;SDS011;36278;47.952;21.714;2022-10-17T02:04:34;50.17;;;35.23;;
43070;SDS011;36278;47.952;21.714;2022-10-17T02:07:07;47.13;;;35.53;;
43070;SDS011;36278;47.952;21.714;2022-10-17T02:09:34;46.27;;;34.23;;
43070;SDS011;36278;47.952;21.714;2022-10-17T02:25:38;45.78;;;34.83;;
43070;SDS011;36278;47.952;21.714;2022-10-17T02:28:20;51.85;;;34.80;;
43070;SDS011;36278;47.952;21.714;2022-10-17T02:31:03;41.60;;;33.13;;
43070;SDS011;36278;47.952;21.714;2022-10-17T02:33:43;45.57;;;33.30;;
43070;SDS011;36278;47.952;21.714;2022-10-17T02:36:18;40.80;;;31.30;;
43070;SDS011;36278;47.952;21.714;2022-10-17T02:38:47;42.33;;;32.57;;
43070;SDS011;36278;47.952;21.714;2022-10-17T02:41:15;43.43;;;33.50;;
43070;SDS011;36278;47.952;21.714;2022-10-17T02:43:43;46.20;;;31.87;;
43070;SDS011;36278;47.952;21.714;2022-10-17T02:46:12;40.23;;;32.43;;
43070;SDS011;36278;47.952;21.714;2022-10-17T02:49:48;43.20;;;33.03;;
43070;SDS011;36278;47.952;21.714;2022-10-17T02:51:56;45.73;;;33.80;;
43070;SDS011;36278;47.952;21.714;2022-10-17T02:54:40;42.90;;;34.20;;
43070;SDS011;36278;47.952;21.714;2022-10-17T02:57:15;44.07;;;33.33;;
43070;SDS011;36278;47.952;21.714;2022-10-17T02:59:46;43.33;;;33.80;;
43070;SDS011;36278;47.952;21.714;2022-10-17T03:02:13;46.57;;;33.93;;
43070;SDS011;36278;47.952;21.714;2022-10-17T03:04:41;41.77;;;32.80;;
43070;SDS011;36278;47.952;21.714;2022-10-17T03:07:08;47.47;;;34.97;;
43070;SDS011;36278;47.952;21.714;2022-10-17T03:09:33;42.27;;;33.47;;
43070;SDS011;36278;47.952;21.714;2022-10-17T03:11:59;40.27;;;33.10;;
43070;SDS011;36278;47.952;21.714;2022-10-17T03:14:24;41.40;;;32.77;;
43070;SDS011;36278;47.952;21.714;2022-10-17T03:16:49;41.17;;;32.73;;
43070;SDS011;36278;47.952;21.714;2022-10-17T03:19:15;43.03;;;32.47;;
43070;SDS011;36278;47.952;21.714;2022-10-17T03:21:40;42.17;;;32.53;;
43070;SDS011;36278;47.952;21.714;2022-10-17T03:24:06;41.97;;;32.60;;
43070;SDS011;36278;47.952;21.714;2022-10-17T03:26:31;41.30;;;32.87;;
43070;SDS011;36278;47.952;21.714;2022-10-17T03:28:57;44.03;;;31.93;;
43070;SDS011;36278;47.952;21.714;2022-10-17T03:31:23;44.30;;;32.20;;
43070;SDS011;36278;47.952;21.714;2022-10-17T03:33:48;41.07;;;32.17;;
43070;SDS011;36278;47.952;21.714;2022-10-17T03:36:15;38.97;;;31.03;;
43070;SDS011;36278;47.952;21.714;2022-10-17T03:38:42;40.60;;;30.77;;
43070;SDS011;36278;47.952;21.714;2022-10-17T03:41:08;46.70;;;31.47;;
43070;SDS011;36278;47.952;21.714;2022-10-17T03:43:34;42.47;;;31.23;;
43070;SDS011;36278;47.952;21.714;2022-10-17T03:45:59;39.50;;;30.80;;
43070;SDS011;36278;47.952;21.714;2022-10-17T03:48:25;43.20;;;32.13;;
43070;SDS011;36278;47.952;21.714;2022-10-17T03:51:00;40.90;;;31.77;;
43070;SDS011;36278;47.952;21.714;2022-10-17T03:53:27;41.47;;;32.90;;
43070;SDS011;36278;47.952;21.714;2022-10-17T03:55:53;43.13;;;30.77;;
43070;SDS011;36278;47.952;21.714;2022-10-17T03:58:18;42.00;;;33.33;;
43070;SDS011;36278;47.952;21.714;2022-10-17T04:00:44;42.10;;;32.20;;
43070;SDS011;36278;47.952;21.714;2022-10-17T04:03:09;42.90;;;33.80;;
43070;SDS011;36278;47.952;21.714;2022-10-17T04:05:35;42.00;;;32.17;;
43070;SDS011;36278;47.952;21.714;2022-10-17T04:08:00;45.20;;;34.50;;
43070;SDS011;36278;47.952;21.714;2022-10-17T04:10:25;45.23;;;34.23;;
43070;SDS011;36278;47.952;21.714;2022-10-17T04:12:51;46.70;;;34.10;;
43070;SDS011;36278;47.952;21.714;2022-10-17T04:15:16;46.00;;;34.40;;
43070;SDS011;36278;47.952;21.714;2022-10-17T04:17:42;51.47;;;36.50;;
43070;SDS011;36278;47.952;21.714;2022-10-17T04:20:07;44.13;;;34.67;;
43070;SDS011;36278;47.952;21.714;2022-10-17T04:22:33;49.40;;;34.10;;
43070;SDS011;36278;47.952;21.714;2022-10-17T04:24:59;44.53;;;33.70;;
43070;SDS011;36278;47.952;21.714;2022-10-17T04:27:24;49.67;;;33.93;;
43070;SDS011;36278;47.952;21.714;2022-10-17T04:29:49;48.27;;;31.93;;
43070;SDS011;36278;47.952;21.714;2022-10-17T04:32:15;45.90;;;30.63;;
43070;SDS011;36278;47.952;21.714;2022-10-17T04:34:41;44.80;;;32.77;;
43070;SDS011;36278;47.952;21.714;2022-10-17T04:37:06;44.63;;;31.67;;
43070;SDS011;36278;47.952;21.714;2022-10-17T04:39:32;43.27;;;31.57;;
43070;SDS011;36278;47.952;21.714;2022-10-17T04:41:57;41.37;;;31.60;;
43070;SDS011;36278;47.952;21.714;2022-10-17T04:44:22;43.60;;;31.53;;
43070;SDS011;36278;47.952;21.714;2022-10-17T04:46:48;46.87;;;31.87;;
43070;SDS011;36278;47.952;21.714;2022-10-17T04:49:13;41.43;;;30.33;;
43070;SDS011;36278;47.952;21.714;2022-10-17T04:51:39;41.87;;;30.00;;
43070;SDS011;36278;47.952;21.714;2022-10-17T04:54:04;46.47;;;31.20;;
43070;SDS011;36278;47.952;21.714;2022-10-17T04:56:30;38.30;;;29.20;;
43070;SDS011;36278;47.952;21.714;2022-10-17T04:58:56;39.63;;;29.23;;
43070;SDS011;36278;47.952;21.714;2022-10-17T05:01:24;44.57;;;31.37;;
43070;SDS011;36278;47.952;21.714;2022-10-17T05:03:49;46.30;;;33.33;;
43070;SDS011;36278;47.952;21.714;2022-10-17T05:06:17;53.60;;;33.17;;
43070;SDS011;36278;47.952;21.714;2022-10-17T05:08:44;64.87;;;40.07;;
43070;SDS011;36278;47.952;21.714;2022-10-17T05:11:18;95.80;;;53.50;;
43070;SDS011;36278;47.952;21.714;2022-10-17T05:13:50;78.13;;;45.40;;
43070;SDS011;36278;47.952;21.714;2022-10-17T05:16:20;94.50;;;52.70;;
43070;SDS011;36278;47.952;21.714;2022-10-17T05:18:50;90.87;;;54.90;;
43070;SDS011;36278;47.952;21.714;2022-10-17T05:21:17;91.67;;;52.60;;
43070;SDS011;36278;47.952;21.714;2022-10-17T05:23:43;97.17;;;55.37;;
43070;SDS011;36278;47.952;21.714;2022-10-17T05:26:09;96.03;;;54.90;;
43070;SDS011;36278;47.952;21.714;2022-10-17T05:28:35;88.53;;;50.77;;
43070;SDS011;36278;47.952;21.714;2022-10-17T05:31:04;92.20;;;50.70;;
43070;SDS011;36278;47.952;21.714;2022-10-17T05:33:31;87.57;;;51.57;;
43070;SDS011;36278;47.952;21.714;2022-10-17T05:35:57;90.77;;;54.70;;
43070;SDS011;36278;47.952;21.714;2022-10-17T05:38:23;85.97;;;53.23;;
43070;SDS011;36278;47.952;21.714;2022-10-17T05:40:49;82.17;;;45.13;;
43070;SDS011;36278;47.952;21.714;2022-10-17T05:43:14;58.27;;;37.87;;
43070;SDS011;36278;47.952;21.714;2022-10-17T05:45:40;62.13;;;37.43;;
43070;SDS011;36278;47.952;21.714;2022-10-17T05:48:05;72.80;;;40.23;;
43070;SDS011;36278;47.952;21.714;2022-10-17T05:50:33;57.53;;;37.47;;
43070;SDS011;36278;47.952;21.714;2022-10-17T05:52:58;55.53;;;33.87;;
43070;SDS011;36278;47.952;21.714;2022-10-17T05:55:24;52.03;;;33.70;;
43070;SDS011;36278;47.952;21.714;2022-10-17T05:57:49;52.63;;;32.00;;
43070;SDS011;36278;47.952;21.714;2022-10-17T06:00:16;58.33;;;36.30;;
43070;SDS011;36278;47.952;21.714;2022-10-17T06:02:42;49.07;;;30.70;;
43070;SDS011;36278;47.952;21.714;2022-10-17T06:05:10;45.10;;;29.87;;
43070;SDS011;36278;47.952;21.714;2022-10-17T06:07:36;45.63;;;29.27;;
43070;SDS011;36278;47.952;21.714;2022-10-17T06:10:01;52.03;;;30.83;;
43070;SDS011;36278;47.952;21.714;2022-10-17T06:12:27;40.90;;;29.20;;
43070;SDS011;36278;47.952;21.714;2022-10-17T06:14:52;47.20;;;28.83;;
43070;SDS011;36278;47.952;21.714;2022-10-17T06:17:18;41.10;;;26.40;;
43070;SDS011;36278;47.952;21.714;2022-10-17T06:19:43;40.70;;;27.47;;
43070;SDS011;36278;47.952;21.714;2022-10-17T06:22:09;42.03;;;26.33;;
43070;SDS011;36278;47.952;21.714;2022-10-17T06:24:34;36.53;;;27.70;;
43070;SDS011;36278;47.952;21.714;2022-10-17T06:27:00;39.07;;;26.80;;
43070;SDS011;36278;47.952;21.714;2022-10-17T06:29:25;43.03;;;28.30;;
43070;SDS011;36278;47.952;21.714;2022-10-17T06:31:51;47.40;;;29.73;;
43070;SDS011;36278;47.952;21.714;2022-10-17T06:34:16;42.77;;;29.77;;
43070;SDS011;36278;47.952;21.714;2022-10-17T06:36:41;42.40;;;29.03;;
43070;SDS011;36278;47.952;21.714;2022-10-17T06:39:07;43.47;;;31.33;;
43070;SDS011;36278;47.952;21.714;2022-10-17T06:41:32;52.73;;;30.17;;
43070;SDS011;36278;47.952;21.714;2022-10-17T06:43:58;41.87;;;28.30;;
43070;SDS011;36278;47.952;21.714;2022-10-17T06:46:23;41.17;;;28.90;;
43070;SDS011;36278;47.952;21.714;2022-10-17T06:48:51;46.87;;;27.67;;
43070;SDS011;36278;47.952;21.714;2022-10-17T06:51:17;49.37;;;28.30;;
43070;SDS011;36278;47.952;21.714;2022-10-17T06:53:42;39.77;;;27.13;;
43070;SDS011;36278;47.952;21.714;2022-10-17T06:56:08;41.57;;;27.23;;
43070;SDS011;36278;47.952;21.714;2022-10-17T06:58:35;39.50;;;27.03;;
43070;SDS011;36278;47.952;21.714;2022-10-17T07:01:07;41.10;;;27.23;;
43070;SDS011;36278;47.952;21.714;2022-10-17T07:03:35;39.97;;;27.47;;
43070;SDS011;36278;47.952;21.714;2022-10-17T07:06:01;42.80;;;26.73;;
43070;SDS011;36278;47.952;21.714;2022-10-17T07:08:27;40.90;;;26.70;;
43070;SDS011;36278;47.952;21.714;2022-10-17T07:10:53;40.10;;;25.97;;
43070;SDS011;36278;47.952;21.714;2022-10-17T07:13:19;39.03;;;25.70;;
43070;SDS011;36278;47.952;21.714;2022-10-17T07:15:44;36.33;;;26.53;;
43070;SDS011;36278;47.952;21.714;2022-10-17T07:18:10;37.10;;;25.87;;
43070;SDS011;36278;47.952;21.714;2022-10-17T07:20:36;37.17;;;26.47;;
43070;SDS011;36278;47.952;21.714;2022-10-17T07:23:02;36.17;;;24.47;;
43070;SDS011;36278;47.952;21.714;2022-10-17T07:25:28;36.40;;;24.90;;
43070;SDS011;36278;47.952;21.714;2022-10-17T07:27:54;40.87;;;26.73;;
43070;SDS011;36278;47.952;21.714;2022-10-17T07:30:20;36.53;;;26.03;;
43070;SDS011;36278;47.952;21.714;2022-10-17T07:32:46;42.40;;;26.77;;
43070;SDS011;36278;47.952;21.714;2022-10-17T07:35:11;37.87;;;25.70;;
43070;SDS011;36278;47.952;21.714;2022-10-17T07:37:38;37.67;;;24.97;;
43070;SDS011;36278;47.952;21.714;2022-10-17T07:40:04;36.43;;;25.27;;
43070;SDS011;36278;47.952;21.714;2022-10-17T07:42:37;36.47;;;25.10;;
43070;SDS011;36278;47.952;21.714;2022-10-17T07:45:03;35.83;;;26.77;;
43070;SDS011;36278;47.952;21.714;2022-10-17T07:47:29;38.40;;;27.17;;
43070;SDS011;36278;47.952;21.714;2022-10-17T07:49:57;47.00;;;28.83;;
43070;SDS011;36278;47.952;21.714;2022-10-17T07:52:22;44.07;;;32.63;;
43070;SDS011;36278;47.952;21.714;2022-10-17T07:54:48;34.07;;;25.23;;
43070;SDS011;36278;47.952;21.714;2022-10-17T07:57:13;34.13;;;23.20;;
43070;SDS011;36278;47.952;21.714;2022-10-17T07:59:39;33.47;;;23.83;;
43070;SDS011;36278;47.952;21.714;2022-10-17T08:02:05;32.33;;;22.67;;
43070;SDS011;36278;47.952;21.714;2022-10-17T08:04:32;31.07;;;22.03;;
43070;SDS011;36278;47.952;21.714;2022-10-17T08:06:58;26.47;;;20.33;;
43070;SDS011;36278;47.952;21.714;2022-10-17T08:09:24;24.57;;;20.67;;
43070;SDS011;36278;47.952;21.714;2022-10-17T08:11:50;29.20;;;21.30;;
43070;SDS011;36278;47.952;21.714;2022-10-17T08:14:15;28.70;;;22.63;;
43070;SDS011;36278;47.952;21.714;2022-10-17T08:16:41;30.40;;;20.50;;
43070;SDS011;36278;47.952;21.714;2022-10-17T08:19:07;28.73;;;21.23;;
43070;SDS011;36278;47.952;21.714;2022-10-17T08:21:35;36.23;;;19.97;;
43070;SDS011;36278;47.952;21.714;2022-10-17T08:24:02;28.70;;;21.33;;
43070;SDS011;36278;47.952;21.714;2022-10-17T08:26:28;28.97;;;21.03;;
43070;SDS011;36278;47.952;21.714;2022-10-17T08:28:55;28.27;;;21.67;;
43070;SDS011;36278;47.952;21.714;2022-10-17T08:31:20;27.97;;;20.23;;
43070;SDS011;36278;47.952;21.714;2022-10-17T08:33:47;27.00;;;19.07;;
43070;SDS011;36278;47.952;21.714;2022-10-17T08:36:14;23.27;;;18.93;;
43070;SDS011;36278;47.952;21.714;2022-10-17T08:38:41;26.23;;;19.87;;
43070;SDS011;36278;47.952;21.714;2022-10-17T08:44:12;27.73;;;18.80;;
43070;SDS011;36278;47.952;21.714;2022-10-17T08:46:40;28.77;;;15.87;;
43070;SDS011;36278;47.952;21.714;2022-10-17T08:49:14;23.10;;;14.73;;
43070;SDS011;36278;47.952;21.714;2022-10-17T08:51:48;20.93;;;14.57;;
43070;SDS011;36278;47.952;21.714;2022-10-17T08:54:23;23.10;;;14.70;;
43070;SDS011;36278;47.952;21.714;2022-10-17T08:56:54;21.43;;;13.57;;
43070;SDS011;36278;47.952;21.714;2022-10-17T08:59:28;25.10;;;14.87;;
43070;SDS011;36278;47.952;21.714;2022-10-17T09:04:32;23.33;;;14.80;;
43070;SDS011;36278;47.952;21.714;2022-10-17T09:07:04;25.63;;;14.52;;
43070;SDS011;36278;47.952;21.714;2022-10-17T09:12:28;29.48;;;16.35;;
43070;SDS011;36278;47.952;21.714;2022-10-17T09:17:49;19.70;;;14.80;;
43070;SDS011;36278;47.952;21.714;2022-10-17T09:20:18;27.60;;;15.53;;
43070;SDS011;36278;47.952;21.714;2022-10-17T09:25:24;20.75;;;15.00;;
43070;SDS011;36278;47.952;21.714;2022-10-17T09:28:38;21.25;;;14.00;;
43070;SDS011;36278;47.952;21.714;2022-10-17T09:30:48;22.00;;;14.15;;
43070;SDS011;36278;47.952;21.714;2022-10-17T09:33:17;21.40;;;14.00;;
43070;SDS011;36278;47.952;21.714;2022-10-17T09:35:47;19.45;;;15.07;;
43070;SDS011;36278;47.952;21.714;2022-10-17T09:38:16;18.33;;;13.48;;
43070;SDS011;36278;47.952;21.714;2022-10-17T09:40:43;23.50;;;14.30;;
43070;SDS011;36278;47.952;21.714;2022-10-17T09:43:14;22.83;;;14.30;;
43070;SDS011;36278;47.952;21.714;2022-10-17T09:45:42;21.95;;;12.85;;
43070;SDS011;36278;47.952;21.714;2022-10-17T09:48:25;17.65;;;12.23;;
43070;SDS011;36278;47.952;21.714;2022-10-17T09:50:58;23.38;;;12.68;;
43070;SDS011;36278;47.952;21.714;2022-10-17T09:53:26;14.18;;;11.10;;
43070;SDS011;36278;47.952;21.714;2022-10-17T09:58:44;20.40;;;12.20;;
43070;SDS011;36278;47.952;21.714;2022-10-17T10:01:16;24.48;;;11.88;;
43070;SDS011;36278;47.952;21.714;2022-10-17T10:03:42;24.63;;;11.50;;
43070;SDS011;36278;47.952;21.714;2022-10-17T10:06:14;15.07;;;10.77;;
43070;SDS011;36278;47.952;21.714;2022-10-17T10:08:48;18.80;;;11.15;;
43070;SDS011;36278;47.952;21.714;2022-10-17T10:11:22;21.45;;;11.77;;
43070;SDS011;36278;47.952;21.714;2022-10-17T10:14:50;21.10;;;12.50;;
43070;SDS011;36278;47.952;21.714;2022-10-17T10:17:01;36.20;;;13.15;;
43070;SDS011;36278;47.952;21.714;2022-10-17T10:19:29;27.90;;;13.57;;
43070;SDS011;36278;47.952;21.714;2022-10-17T10:21:56;19.80;;;12.93;;
43070;SDS011;36278;47.952;21.714;2022-10-17T10:24:23;19.70;;;12.30;;
43070;SDS011;36278;47.952;21.714;2022-10-17T10:26:50;21.92;;;12.35;;
43070;SDS011;36278;47.952;21.714;2022-10-17T10:29:26;30.55;;;11.40;;
43070;SDS011;36278;47.952;21.714;2022-10-17T10:32:15;18.83;;;9.93;;
43070;SDS011;36278;47.952;21.714;2022-10-17T10:34:51;19.33;;;9.50;;
43070;SDS011;36278;47.952;21.714;2022-10-17T10:37:18;16.10;;;8.63;;
43070;SDS011;36278;47.952;21.714;2022-10-17T10:40:05;14.18;;;8.70;;
43070;SDS011;36278;47.952;21.714;2022-10-17T10:42:41;16.33;;;8.75;;
43070;SDS011;36278;47.952;21.714;2022-10-17T10:45:18;11.00;;;8.50;;
43070;SDS011;36278;47.952;21.714;2022-10-17T10:50:24;14.82;;;7.93;;
43070;SDS011;36278;47.952;21.714;2022-10-17T10:53:09;11.52;;;7.15;;
43070;SDS011;36278;47.952;21.714;2022-10-17T10:55:50;18.55;;;6.80;;
43070;SDS011;36278;47.952;21.714;2022-10-17T10:58:31;12.90;;;7.38;;
43070;SDS011;36278;47.952;21.714;2022-10-17T11:07:19;11.98;;;6.72;;
43070;SDS011;36278;47.952;21.714;2022-10-17T11:10:23;12.55;;;7.03;;
43070;SDS011;36278;47.952;21.714;2022-10-17T11:13:21;9.88;;;6.35;;
43070;SDS011;36278;47.952;21.714;2022-10-17T11:18:25;12.70;;;7.57;;
43070;SDS011;36278;47.952;21.714;2022-10-17T11:23:31;11.23;;;6.18;;
43070;SDS011;36278;47.952;21.714;2022-10-17T11:26:16;9.05;;;6.40;;
43070;SDS011;36278;47.952;21.714;2022-10-17T11:28:57;11.20;;;6.88;;
43070;SDS011;36278;47.952;21.714;2022-10-17T11:31:35;16.55;;;8.40;;
43070;SDS011;36278;47.952;21.714;2022-10-17T11:34:09;13.52;;;11.60;;
43070;SDS011;36278;47.952;21.714;2022-10-17T11:36:43;25.63;;;18.90;;
43070;SDS011;36278;47.952;21.714;2022-10-17T11:39:16;46.75;;;36.97;;
43070;SDS011;36278;47.952;21.714;2022-10-17T11:41:50;15.10;;;11.95;;
43070;SDS011;36278;47.952;21.714;2022-10-17T11:47:13;8.18;;;6.13;;
43070;SDS011;36278;47.952;21.714;2022-10-17T11:49:44;13.10;;;5.93;;
43070;SDS011;36278;47.952;21.714;2022-10-17T11:52:25;8.43;;;6.35;;
43070;SDS011;36278;47.952;21.714;2022-10-17T11:54:53;11.25;;;6.75;;
43070;SDS011;36278;47.952;21.714;2022-10-17T11:57:28;37.08;;;27.23;;
43070;SDS011;36278;47.952;21.714;2022-10-17T12:02:56;12.30;;;7.15;;
43070;SDS011;36278;47.952;21.714;2022-10-17T12:08:24;10.45;;;5.72;;
43070;SDS011;36278;47.952;21.714;2022-10-17T12:15:54;8.05;;;6.22;;
43070;SDS011;36278;47.952;21.714;2022-10-17T12:18:22;9.07;;;5.90;;
43070;SDS011;36278;47.952;21.714;2022-10-17T12:20:59;10.38;;;6.10;;
43070;SDS011;36278;47.952;21.714;2022-10-17T12:23:28;9.52;;;6.20;;
43070;SDS011;36278;47.952;21.714;2022-10-17T12:25:59;10.05;;;6.60;;
43070;SDS011;36278;47.952;21.714;2022-10-17T12:30:59;13.90;;;6.25;;
43070;SDS011;36278;47.952;21.714;2022-10-17T12:42:19;9.65;;;5.55;;
43070;SDS011;36278;47.952;21.714;2022-10-17T12:46:50;18.48;;;6.03;;
43070;SDS011;36278;47.952;21.714;2022-10-17T12:49:20;9.80;;;5.67;;
43070;SDS011;36278;47.952;21.714;2022-10-17T13:03:13;11.20;;;5.40;;
43070;SDS011;36278;47.952;21.714;2022-10-17T13:05:47;8.98;;;5.07;;
43070;SDS011;36278;47.952;21.714;2022-10-17T13:08:20;10.93;;;5.60;;
43070;SDS011;36278;47.952;21.714;2022-10-17T13:10:46;8.95;;;4.95;;
43070;SDS011;36278;47.952;21.714;2022-10-17T13:16:31;7.72;;;5.15;;
43070;SDS011;36278;47.952;21.714;2022-10-17T13:18:59;7.05;;;5.25;;
43070;SDS011;36278;47.952;21.714;2022-10-17T13:21:26;15.73;;;5.35;;
43070;SDS011;36278;47.952;21.714;2022-10-17T13:23:52;11.15;;;5.38;;
43070;SDS011;36278;47.952;21.714;2022-10-17T13:26:19;10.40;;;5.68;;
43070;SDS011;36278;47.952;21.714;2022-10-17T13:29:08;9.15;;;5.55;;
43070;SDS011;36278;47.952;21.714;2022-10-17T13:31:37;10.27;;;6.00;;
43070;SDS011;36278;47.952;21.714;2022-10-17T13:34:05;10.40;;;5.97;;
43070;SDS011;36278;47.952;21.714;2022-10-17T13:36:39;13.70;;;5.57;;
43070;SDS011;36278;47.952;21.714;2022-10-17T13:39:07;12.77;;;5.38;;
43070;SDS011;36278;47.952;21.714;2022-10-17T13:41:34;11.50;;;5.18;;
43070;SDS011;36278;47.952;21.714;2022-10-17T13:44:01;11.38;;;6.03;;
43070;SDS011;36278;47.952;21.714;2022-10-17T13:46:30;9.95;;;5.75;;
43070;SDS011;36278;47.952;21.714;2022-10-17T13:48:58;10.20;;;5.47;;
43070;SDS011;36278;47.952;21.714;2022-10-17T13:51:32;7.40;;;5.00;;
43070;SDS011;36278;47.952;21.714;2022-10-17T13:53:58;10.63;;;5.75;;
43070;SDS011;36278;47.952;21.714;2022-10-17T13:56:24;7.95;;;5.53;;
43070;SDS011;36278;47.952;21.714;2022-10-17T13:58:52;14.52;;;5.93;;
43070;SDS011;36278;47.952;21.714;2022-10-17T14:01:21;9.05;;;5.53;;
43070;SDS011;36278;47.952;21.714;2022-10-17T14:03:49;14.00;;;5.45;;
43070;SDS011;36278;47.952;21.714;2022-10-17T14:06:28;13.85;;;5.53;;
43070;SDS011;36278;47.952;21.714;2022-10-17T14:08:59;7.07;;;5.10;;
43070;SDS011;36278;47.952;21.714;2022-10-17T14:11:39;9.90;;;6.30;;
43070;SDS011;36278;47.952;21.714;2022-10-17T14:14:18;9.15;;;5.72;;
43070;SDS011;36278;47.952;21.714;2022-10-17T14:16:46;8.05;;;4.95;;
43070;SDS011;36278;47.952;21.714;2022-10-17T14:19:22;7.30;;;4.80;;
43070;SDS011;36278;47.952;21.714;2022-10-17T14:22:15;7.15;;;4.95;;
43070;SDS011;36278;47.952;21.714;2022-10-17T14:24:46;9.93;;;5.28;;
43070;SDS011;36278;47.952;21.714;2022-10-17T14:32:55;11.48;;;5.18;;
43070;SDS011;36278;47.952;21.714;2022-10-17T14:35:22;10.15;;;5.03;;
43070;SDS011;36278;47.952;21.714;2022-10-17T14:37:49;9.27;;;5.03;;
43070;SDS011;36278;47.952;21.714;2022-10-17T14:40:20;11.20;;;5.22;;
43070;SDS011;36278;47.952;21.714;2022-10-17T14:42:54;8.52;;;5.15;;
43070;SDS011;36278;47.952;21.714;2022-10-17T14:45:23;10.90;;;5.50;;
43070;SDS011;36278;47.952;21.714;2022-10-17T14:47:50;18.40;;;5.38;;
43070;SDS011;36278;47.952;21.714;2022-10-17T14:50:26;8.68;;;5.13;;
43070;SDS011;36278;47.952;21.714;2022-10-17T14:55:30;7.40;;;4.63;;
43070;SDS011;36278;47.952;21.714;2022-10-17T14:57:59;8.63;;;4.63;;
43070;SDS011;36278;47.952;21.714;2022-10-17T15:00:25;9.43;;;5.05;;
43070;SDS011;36278;47.952;21.714;2022-10-17T15:02:52;13.10;;;5.32;;
43070;SDS011;36278;47.952;21.714;2022-10-17T15:05:19;13.60;;;4.97;;
43070;SDS011;36278;47.952;21.714;2022-10-17T15:07:47;7.55;;;5.20;;
43070;SDS011;36278;47.952;21.714;2022-10-17T15:10:32;13.45;;;5.65;;
43070;SDS011;36278;47.952;21.714;2022-10-17T15:13:00;11.90;;;5.30;;
43070;SDS011;36278;47.952;21.714;2022-10-17T15:15:30;8.98;;;4.70;;
43070;SDS011;36278;47.952;21.714;2022-10-17T15:17:56;10.05;;;5.60;;
43070;SDS011;36278;47.952;21.714;2022-10-17T15:20:23;9.15;;;5.10;;
43070;SDS011;36278;47.952;21.714;2022-10-17T15:22:56;9.40;;;5.38;;
43070;SDS011;36278;47.952;21.714;2022-10-17T15:25:23;10.52;;;5.30;;
43070;SDS011;36278;47.952;21.714;2022-10-17T15:27:50;20.95;;;6.25;;
43070;SDS011;36278;47.952;21.714;2022-10-17T15:30:23;12.90;;;6.53;;
43070;SDS011;36278;47.952;21.714;2022-10-17T15:32:52;12.35;;;6.35;;
43070;SDS011;36278;47.952;21.714;2022-10-17T15:35:18;16.85;;;6.13;;
43070;SDS011;36278;47.952;21.714;2022-10-17T15:37:45;17.75;;;6.43;;
43070;SDS011;36278;47.952;21.714;2022-10-17T15:40:13;13.00;;;5.70;;
43070;SDS011;36278;47.952;21.714;2022-10-17T15:42:43;13.02;;;5.97;;
43070;SDS011;36278;47.952;21.714;2022-10-17T15:45:10;9.80;;;6.20;;
43070;SDS011;36278;47.952;21.714;2022-10-17T15:47:36;16.25;;;6.45;;
43070;SDS011;36278;47.952;21.714;2022-10-17T15:50:03;15.65;;;6.07;;
43070;SDS011;36278;47.952;21.714;2022-10-17T15:52:30;11.67;;;6.43;;
43070;SDS011;36278;47.952;21.714;2022-10-17T15:54:56;17.13;;;7.60;;
43070;SDS011;36278;47.952;21.714;2022-10-17T15:57:26;17.33;;;6.50;;
43070;SDS011;36278;47.952;21.714;2022-10-17T15:59:53;15.93;;;6.70;;
43070;SDS011;36278;47.952;21.714;2022-10-17T16:02:21;13.37;;;7.50;;
43070;SDS011;36278;47.952;21.714;2022-10-17T16:04:48;18.53;;;7.60;;
43070;SDS011;36278;47.952;21.714;2022-10-17T16:07:15;12.53;;;7.03;;
43070;SDS011;36278;47.952;21.714;2022-10-17T16:09:41;17.83;;;6.77;;
43070;SDS011;36278;47.952;21.714;2022-10-17T16:12:15;8.90;;;6.50;;
43070;SDS011;36278;47.952;21.714;2022-10-17T16:14:43;16.60;;;7.10;;
43070;SDS011;36278;47.952;21.714;2022-10-17T16:17:12;10.27;;;6.63;;
43070;SDS011;36278;47.952;21.714;2022-10-17T16:19:39;14.60;;;6.73;;
43070;SDS011;36278;47.952;21.714;2022-10-17T16:22:05;11.73;;;7.70;;
43070;SDS011;36278;47.952;21.714;2022-10-17T16:24:38;15.45;;;7.03;;
43070;SDS011;36278;47.952;21.714;2022-10-17T16:27:03;17.03;;;7.50;;
43070;SDS011;36278;47.952;21.714;2022-10-17T16:29:29;15.50;;;7.10;;
43070;SDS011;36278;47.952;21.714;2022-10-17T16:31:54;22.63;;;7.73;;